< < Back
Terminal Aerodrome Forecast


Current Version              Previous Versions:   1  2  3  4  5  6  7  8  9  

Terminal Aerodrome Forecast

151
FTUS42 KFFC 210900 AAA
TAFPDK
TAF AMD
KPDK 210939Z 2110/2206 28003KT P6SM SCT150
     FM211100 29003KT 4SM BR SCT008
     FM211400 30004KT P6SM SCT025
     FM211700 30006KT P6SM SCT045
     FM220200 31002KT P6SM SKC=

Latest METAR

365
SAUS70 KWBC 220400 RRG
MTRPDK
METAR KPDK 220353Z AUTO 00000KT 9SM CLR 24/22 A3014 RMK AO2 SLP186
T02390217 TSNO $


USA.gov is the U.S. government's official web portal to all federal, state and local government web resources and services.